sensor_id;sensor_type;location;lat;lon;timestamp;P1;durP1;ratioP1;P2;durP2;ratioP2
73104;SDS011;61296;50.526;30.792;2023-02-28T00:09:00;6.72;;;3.05;;
73104;SDS011;61296;50.526;30.792;2023-02-28T00:24:20;4.28;;;2.35;;
73104;SDS011;61296;50.526;30.792;2023-02-28T00:39:39;5.68;;;2.67;;
73104;SDS011;61296;50.526;30.792;2023-02-28T00:54:59;5.05;;;3.05;;
73104;SDS011;61296;50.526;30.792;2023-02-28T01:10:19;14.90;;;6.05;;
73104;SDS011;61296;50.526;30.792;2023-02-28T01:25:39;6.55;;;3.05;;
73104;SDS011;61296;50.526;30.792;2023-02-28T01:40:59;8.15;;;3.42;;
73104;SDS011;61296;50.526;30.792;2023-02-28T01:56:20;6.32;;;3.28;;
73104;SDS011;61296;50.526;30.792;2023-02-28T02:11:47;6.15;;;3.35;;
73104;SDS011;61296;50.526;30.792;2023-02-28T02:43:11;7.70;;;3.83;;
73104;SDS011;61296;50.526;30.792;2023-02-28T02:58:37;9.88;;;4.60;;
73104;SDS011;61296;50.526;30.792;2023-02-28T03:29:37;9.52;;;4.60;;
73104;SDS011;61296;50.526;30.792;2023-02-28T03:45:04;8.70;;;4.60;;
73104;SDS011;61296;50.526;30.792;2023-02-28T04:16:16;8.38;;;4.53;;
73104;SDS011;61296;50.526;30.792;2023-02-28T04:31:35;8.25;;;3.83;;
73104;SDS011;61296;50.526;30.792;2023-02-28T04:46:55;9.80;;;5.55;;
73104;SDS011;61296;50.526;30.792;2023-02-28T05:02:14;19.48;;;6.78;;
73104;SDS011;61296;50.526;30.792;2023-02-28T05:17:34;13.57;;;5.45;;
73104;SDS011;61296;50.526;30.792;2023-02-28T05:32:53;12.65;;;5.82;;
73104;SDS011;61296;50.526;30.792;2023-02-28T05:48:13;12.05;;;4.95;;
73104;SDS011;61296;50.526;30.792;2023-02-28T06:03:32;14.65;;;5.05;;
73104;SDS011;61296;50.526;30.792;2023-02-28T06:18:52;12.15;;;4.97;;
73104;SDS011;61296;50.526;30.792;2023-02-28T06:34:12;15.07;;;5.55;;
73104;SDS011;61296;50.526;30.792;2023-02-28T06:49:32;6.63;;;3.13;;
73104;SDS011;61296;50.526;30.792;2023-02-28T07:05:00;9.98;;;4.65;;
73104;SDS011;61296;50.526;30.792;2023-02-28T07:20:19;8.10;;;3.85;;
73104;SDS011;61296;50.526;30.792;2023-02-28T07:35:39;8.00;;;3.90;;
73104;SDS011;61296;50.526;30.792;2023-02-28T07:50:58;8.88;;;4.55;;
73104;SDS011;61296;50.526;30.792;2023-02-28T08:06:19;11.10;;;4.65;;
73104;SDS011;61296;50.526;30.792;2023-02-28T08:21:46;11.30;;;4.22;;
73104;SDS011;61296;50.526;30.792;2023-02-28T08:37:05;9.45;;;4.13;;
73104;SDS011;61296;50.526;30.792;2023-02-28T08:52:25;8.20;;;4.30;;
73104;SDS011;61296;50.526;30.792;2023-02-28T09:07:44;6.75;;;4.13;;
73104;SDS011;61296;50.526;30.792;2023-02-28T09:23:04;9.10;;;4.88;;
73104;SDS011;61296;50.526;30.792;2023-02-28T09:38:28;9.40;;;5.40;;
73104;SDS011;61296;50.526;30.792;2023-02-28T09:53:48;10.07;;;5.45;;
73104;SDS011;61296;50.526;30.792;2023-02-28T10:09:11;13.57;;;7.65;;
73104;SDS011;61296;50.526;30.792;2023-02-28T10:24:39;13.95;;;6.28;;
73104;SDS011;61296;50.526;30.792;2023-02-28T10:40:03;13.55;;;6.88;;
73104;SDS011;61296;50.526;30.792;2023-02-28T10:55:25;11.05;;;6.20;;
73104;SDS011;61296;50.526;30.792;2023-02-28T11:10:53;10.02;;;6.20;;
73104;SDS011;61296;50.526;30.792;2023-02-28T11:42:50;11.02;;;5.88;;
73104;SDS011;61296;50.526;30.792;2023-02-28T11:58:30;14.73;;;6.40;;
73104;SDS011;61296;50.526;30.792;2023-02-28T12:45:47;10.87;;;5.53;;
73104;SDS011;61296;50.526;30.792;2023-02-28T13:01:27;11.77;;;6.22;;
73104;SDS011;61296;50.526;30.792;2023-02-28T13:16:59;11.65;;;6.45;;
73104;SDS011;61296;50.526;30.792;2023-02-28T13:47:56;11.75;;;5.95;;
73104;SDS011;61296;50.526;30.792;2023-02-28T14:19:05;12.88;;;7.15;;
73104;SDS011;61296;50.526;30.792;2023-02-28T14:50:21;17.05;;;8.90;;
73104;SDS011;61296;50.526;30.792;2023-02-28T15:05:47;18.90;;;8.48;;
73104;SDS011;61296;50.526;30.792;2023-02-28T15:21:11;23.83;;;9.13;;
73104;SDS011;61296;50.526;30.792;2023-02-28T15:36:34;24.05;;;12.23;;
73104;SDS011;61296;50.526;30.792;2023-02-28T15:51:58;25.13;;;10.80;;
73104;SDS011;61296;50.526;30.792;2023-02-28T16:07:19;23.23;;;9.55;;
73104;SDS011;61296;50.526;30.792;2023-02-28T16:22:39;19.90;;;9.10;;
73104;SDS011;61296;50.526;30.792;2023-02-28T16:38:01;17.33;;;7.70;;
73104;SDS011;61296;50.526;30.792;2023-02-28T16:53:20;13.30;;;6.63;;
73104;SDS011;61296;50.526;30.792;2023-02-28T17:08:40;15.60;;;7.07;;
73104;SDS011;61296;50.526;30.792;2023-02-28T17:24:00;12.45;;;6.18;;
73104;SDS011;61296;50.526;30.792;2023-02-28T17:55:15;13.38;;;6.18;;
73104;SDS011;61296;50.526;30.792;2023-02-28T18:10:35;18.92;;;8.27;;
73104;SDS011;61296;50.526;30.792;2023-02-28T18:25:54;14.32;;;6.85;;
73104;SDS011;61296;50.526;30.792;2023-02-28T18:41:20;15.07;;;7.73;;
73104;SDS011;61296;50.526;30.792;2023-02-28T18:56:41;17.83;;;8.57;;
73104;SDS011;61296;50.526;30.792;2023-02-28T19:12:02;20.25;;;8.77;;
73104;SDS011;61296;50.526;30.792;2023-02-28T19:27:23;19.83;;;8.73;;
73104;SDS011;61296;50.526;30.792;2023-02-28T19:42:42;20.75;;;8.90;;
73104;SDS011;61296;50.526;30.792;2023-02-28T19:58:03;17.30;;;8.13;;
73104;SDS011;61296;50.526;30.792;2023-02-28T20:13:23;18.40;;;7.55;;
73104;SDS011;61296;50.526;30.792;2023-02-28T20:28:43;19.17;;;8.63;;
73104;SDS011;61296;50.526;30.792;2023-02-28T20:44:03;20.88;;;7.82;;
73104;SDS011;61296;50.526;30.792;2023-02-28T20:59:23;16.98;;;7.50;;
73104;SDS011;61296;50.526;30.792;2023-02-28T21:14:45;19.67;;;8.85;;
73104;SDS011;61296;50.526;30.792;2023-02-28T21:30:07;16.02;;;7.72;;
73104;SDS011;61296;50.526;30.792;2023-02-28T21:45:26;17.88;;;8.18;;
73104;SDS011;61296;50.526;30.792;2023-02-28T22:00:47;16.52;;;7.32;;
73104;SDS011;61296;50.526;30.792;2023-02-28T22:16:08;18.40;;;7.75;;
73104;SDS011;61296;50.526;30.792;2023-02-28T22:31:32;18.77;;;8.07;;
73104;SDS011;61296;50.526;30.792;2023-02-28T22:46:52;16.52;;;6.85;;
73104;SDS011;61296;50.526;30.792;2023-02-28T23:02:13;19.58;;;7.80;;
73104;SDS011;61296;50.526;30.792;2023-02-28T23:17:32;17.17;;;7.55;;
73104;SDS011;61296;50.526;30.792;2023-02-28T23:32:52;18.77;;;7.50;;
73104;SDS011;61296;50.526;30.792;2023-02-28T23:48:12;17.33;;;7.45;;
